Cisco, IL (61830)

4:25 AM CST on February 12, 2016 (GMT -0600)
Jones Family | | Change Station
CLOSE
Current Station
Personal Weather Station
Location: Monticello, IL
Elevation: 745 ft
Nearby Weather Stations

Elev 745 ft 40.00 °N, 88.58 °W | Updated 32 seconds ago

Snow
Snow
20.7 °F
Feels Like 14 °F
N
4.5
Wind Variable Wind from South
Gusts 8.3 mph

Today
High -- | Low -- °F
--% Chance of Precip.
Yesterday
High -- | Low -- °F
Precip. -- in
Pressure 30.20 in
Visibility 2.0 miles
Clouds Overcast 2900 ft
Windchill 14 °F
Dew Point 12 °F
Humidity 69%
Rainfall 0.00 in
Snow Depth Not available.
6:51 AM 5:26 PM
Waxing Crescent, 19% visible
SPECI KDEC 121019Z AUTO 23003KT 2SM -SN OVC029 M06/M08 A3020 RMK AO2 P0000 T10561083
Pressure 30.20 in
Visibility 2.0 miles
Clouds Overcast 2900 ft
Windchill 14 °F
Dew Point 12 °F
Humidity 69%
Rainfall 0.00 in
Snow Depth Not available.
6:51 AM 5:26 PM
Waxing Crescent, 19% visible
SPECI KDEC 121019Z AUTO 23003KT 2SM -SN OVC029 M06/M08 A3020 RMK AO2 P0000 T10561083

10-Day Weather Forecast

Almanac

Astronomy

Feb. 12, 2016 Rise Set
Actual Time
Civil Twilight
Nautical Twilight
Astronomical Twilight
Moon
Length of Visible Light
Length of Day
Tomorrow will be .
, % of the Moon is Illuminated

Today's Extremes

State Highs State Lows

Community

WunderPhotos

Upload Photos

1,892,289 photos uploaded!

WunderBlog® & News

Nearby

Air Quality

  Air Quality AQ Index Pollutant
Not available.

Snow Depth

Station Depth Elevation

Earthquake Activity

City Distance Mag. Time & Date
Minimum magnitude displayed is 2.5.

Coastal Water Temperatures

Place Temperature

Stations

Nearby Weather Stations

Station Location Temp. Windchill Dew Point Humidity Wind Precip. Elev Updated Type
                   

Watches & Warnings

There are currently no watches in effect.